メインページ
METAR-TAF:

METAR-TAF

空港 :

カーブル, アフガニスタン

カーブル国際空港

緯度: 34-38N, 経度: 069-12E, 海抜: 1789m

現時点の気象観測

当レポートは29分前の11:50(UTC)に作成
の風 7kt
気温 7°C
湿度 81%
気圧 1019 hPa
視程10km以上
高度1000ftの雲は散在している
高度3500ftの曇り
弱いにわか雨

METAR: OAKB 241150Z 35007KT 9999 -SHRA SCT010 OVC035 07/04 Q1019 NOSIG RMK A3010 BLU BLU

時間: 16:49 (12:19 UTC)

予報

当レポートは1時間14分前の11:05(UTC)に作成
予報は24日の 12時(UTC)から 25日の 12時(UTC)まで有効
変向風 2kt
視程10km以上
高度1500ftの雲はほとんどない
高度3000ftの千切れ雲あり
高度5000ftの曇り
24日の 12時(UTC)から 24日の 16時(UTC)まで一時的に
高度1500ftの雲は散在している
高度2500ftの千切れ雲あり
高度4000ftの曇り
弱いにわか雨
24日の 16時(UTC)から 24日の 18時(UTC)まで徐々に
視程: 3500m
高度4000ftの千切れ雲あり
高度12000ftの千切れ雲あり
24日の 22時(UTC)から 24日の 24時(UTC)まで徐々に
視程: 1500m
高度5000ftの雲はほとんどない
高度12000ftの雲は散在している
25日の 04時(UTC)から 25日の 06時(UTC)まで徐々に
視程: 6000m
25日の 08時(UTC)から 25日の 10時(UTC)まで徐々に
視程10km以上
1,500メートル以下は雲なし、積乱雲なし

TAF: OAKB 241105Z 2412/2512 VRB02KT 9999 FEW015 BKN030 OVC050 TEMPO 2412/2416 -SHRA SCT015 BKN025 OVC040 BECMG 2416/2418 3500 BR BKN040 BKN120 BECMG 2422/2424 1500 FEW050 SCT120 BECMG 2504/2506 6000 NSW BECMG 2508/2510 CAVOK

4,000以上の空港の気象観測と天気予報(METAR報とTAF報)

利用可能な観測所は地図上に黄色い丸と赤い丸で示す。

丸の上にカーソルを重ねると観測所名を参照できる。

次にクリックすると気象観測と天気予報を参照できる。

マップの切り替え:黒色「×」印の緑ボタンをクリックして拡大、「-」印の緑ボタンをクリックして縮小、緑色の三角印をクリックして隣りの地図に切り替え


METAR-TAF: